Time;durP1;ratioP1;P1;durP2;ratioP2;P2;SDS_P1;SDS_P2;PMS_P1;PMS_P2;Temp;Humidity;BMP_temperature;BMP_pressure;BME280_temperature;BME280_humidity;BME280_pressure;Samples;Min_cycle;Max_cycle;Signal;HPM_P1;HPM_P2
2021/11/30 00:00:15;;;;;;;14.00;6.18;;;;;;;;;;4985188;28;20042;-79
2021/11/30 00:02:42;;;;;;;16.63;6.30;;;;;;;;;;4991206;28;20074;-80
2021/11/30 00:05:09;;;;;;;14.65;6.43;;;;;;;;;;4989047;28;20191;-79
2021/11/30 00:07:36;;;;;;;14.23;6.20;;;;;;;;;;4983397;28;20470;-79
2021/11/30 00:12:48;;;;;;;13.43;6.22;;;;;;;;;;5055286;28;20060;-76
2021/11/30 00:15:16;;;;;;;14.15;6.00;;;;;;;;;;5055082;28;20049;-76
2021/11/30 00:17:43;;;;;;;17.50;7.97;;;;;;;;;;5055037;28;20052;-77
2021/11/30 00:20:11;;;;;;;13.55;6.20;;;;;;;;;;5054632;28;20515;-77
2021/11/30 00:22:38;;;;;;;12.90;6.22;;;;;;;;;;5054872;28;20106;-76
2021/11/30 00:25:05;;;;;;;14.95;6.55;;;;;;;;;;5054697;28;20091;-76
2021/11/30 00:27:32;;;;;;;12.82;5.88;;;;;;;;;;5053413;28;20045;-76
2021/11/30 00:29:59;;;;;;;14.70;6.03;;;;;;;;;;5055012;28;20044;-76
2021/11/30 00:32:27;;;;;;;13.30;5.95;;;;;;;;;;5054470;28;20103;-77
2021/11/30 00:34:54;;;;;;;12.07;5.57;;;;;;;;;;5054472;28;20049;-76
2021/11/30 00:37:21;;;;;;;13.68;5.95;;;;;;;;;;5054168;28;20053;-76
2021/11/30 00:39:47;;;;;;;12.77;5.80;;;;;;;;;;5054535;28;20053;-76
2021/11/30 00:42:14;;;;;;;10.25;4.90;;;;;;;;;;5054529;28;20045;-76
2021/11/30 00:44:43;;;;;;;10.52;5.68;;;;;;;;;;5054740;28;20048;-77
2021/11/30 00:47:17;;;;;;;11.50;5.40;;;;;;;;;;5054286;28;20099;-76
2021/11/30 00:49:46;;;;;;;13.00;5.07;;;;;;;;;;5053889;28;20107;-77
2021/11/30 00:52:13;;;;;;;10.93;5.00;;;;;;;;;;5054513;28;20048;-76
2021/11/30 00:54:42;;;;;;;10.43;5.05;;;;;;;;;;5054420;28;20094;-76
2021/11/30 00:57:09;;;;;;;10.80;4.60;;;;;;;;;;5053829;28;20571;-77
2021/11/30 00:59:36;;;;;;;11.93;5.75;;;;;;;;;;5054043;28;20182;-75
2021/11/30 01:02:03;;;;;;;11.00;5.55;;;;;;;;;;5053834;28;20099;-77
2021/11/30 01:04:30;;;;;;;11.45;5.40;;;;;;;;;;5054225;28;20053;-77
2021/11/30 01:06:58;;;;;;;13.40;5.45;;;;;;;;;;5055751;28;20118;-76
2021/11/30 01:09:25;;;;;;;14.27;6.05;;;;;;;;;;5053665;28;20056;-76
2021/11/30 01:11:52;;;;;;;11.88;5.57;;;;;;;;;;5054367;28;20080;-77
2021/11/30 01:14:19;;;;;;;11.13;5.88;;;;;;;;;;5054161;28;20057;-77
2021/11/30 01:16:46;;;;;;;13.65;5.70;;;;;;;;;;5053995;28;20099;-77
2021/11/30 01:19:14;;;;;;;9.60;4.95;;;;;;;;;;5053426;28;20384;-77
2021/11/30 01:21:41;;;;;;;11.25;5.28;;;;;;;;;;5054295;28;20415;-76
2021/11/30 01:24:10;;;;;;;11.10;5.68;;;;;;;;;;5068189;28;20044;-75
2021/11/30 01:26:37;;;;;;;13.10;5.78;;;;;;;;;;5075148;28;20073;-76
2021/11/30 01:29:05;;;;;;;12.02;5.03;;;;;;;;;;5055900;28;20053;-76
2021/11/30 01:31:32;;;;;;;9.63;5.05;;;;;;;;;;5054284;28;20060;-77
2021/11/30 01:33:59;;;;;;;11.85;5.25;;;;;;;;;;5053987;28;20041;-77
2021/11/30 01:36:25;;;;;;;10.43;5.00;;;;;;;;;;5053513;28;20099;-77
2021/11/30 01:38:52;;;;;;;9.27;4.82;;;;;;;;;;5052758;28;20114;-77
2021/11/30 01:41:21;;;;;;;9.95;4.75;;;;;;;;;;5053369;28;20045;-76
2021/11/30 01:43:49;;;;;;;9.57;5.40;;;;;;;;;;5053041;28;20047;-77
2021/11/30 01:46:27;;;;;;;9.80;4.63;;;;;;;;;;5053087;28;20049;-76
2021/11/30 01:49:18;;;;;;;9.35;4.85;;;;;;;;;;5053113;28;20077;-77
2021/11/30 01:51:45;;;;;;;10.68;5.03;;;;;;;;;;5053356;28;20059;-77
2021/11/30 01:54:12;;;;;;;13.75;5.00;;;;;;;;;;5053004;28;20048;-77
2021/11/30 01:56:40;;;;;;;8.18;4.00;;;;;;;;;;5052924;28;20549;-77
2021/11/30 01:59:07;;;;;;;8.48;4.00;;;;;;;;;;5052501;28;20053;-77
2021/11/30 02:01:33;;;;;;;12.43;4.80;;;;;;;;;;5053098;28;20048;-77
2021/11/30 02:04:00;;;;;;;12.02;4.97;;;;;;;;;;5052913;28;20568;-77
2021/11/30 02:06:27;;;;;;;9.85;5.07;;;;;;;;;;5053061;28;20059;-77
2021/11/30 02:08:54;;;;;;;8.48;4.53;;;;;;;;;;5052351;28;20107;-77
2021/11/30 02:11:21;;;;;;;8.32;4.30;;;;;;;;;;5052842;28;20476;-77
2021/11/30 02:13:49;;;;;;;8.93;4.57;;;;;;;;;;5052857;28;20495;-77
2021/11/30 02:16:19;;;;;;;8.65;4.30;;;;;;;;;;5052616;28;20045;-77
2021/11/30 02:18:47;;;;;;;8.07;4.28;;;;;;;;;;5054132;28;20049;-77
2021/11/30 02:21:17;;;;;;;11.55;4.40;;;;;;;;;;5054446;28;20103;-77
2021/11/30 02:23:49;;;;;;;10.87;5.17;;;;;;;;;;5053235;28;20045;-77
2021/11/30 02:26:17;;;;;;;10.95;4.40;;;;;;;;;;5052888;28;20045;-77
2021/11/30 02:28:47;;;;;;;8.55;4.10;;;;;;;;;;5051971;28;20465;-77
2021/11/30 02:31:17;;;;;;;8.95;4.72;;;;;;;;;;5052521;28;20055;-77
2021/11/30 02:33:43;;;;;;;9.75;4.43;;;;;;;;;;5052480;28;20114;-77
2021/11/30 02:36:23;;;;;;;9.27;4.72;;;;;;;;;;5052530;28;20048;-77
2021/11/30 02:38:50;;;;;;;10.18;4.95;;;;;;;;;;5051959;28;20044;-77
2021/11/30 02:41:17;;;;;;;10.43;4.22;;;;;;;;;;5052476;28;20053;-77
2021/11/30 02:43:44;;;;;;;7.90;4.35;;;;;;;;;;5052874;28;20056;-77
2021/11/30 02:46:11;;;;;;;8.15;3.85;;;;;;;;;;5053722;28;20045;-76
2021/11/30 02:48:38;;;;;;;9.65;4.70;;;;;;;;;;5054644;28;20053;-76
2021/11/30 02:51:08;;;;;;;7.15;3.88;;;;;;;;;;5052267;28;20059;-77
2021/11/30 02:53:36;;;;;;;10.63;4.15;;;;;;;;;;5052517;28;20140;-77
2021/11/30 02:56:04;;;;;;;6.82;3.90;;;;;;;;;;5052795;28;20064;-77
2021/11/30 02:58:31;;;;;;;9.35;3.85;;;;;;;;;;5051841;28;20041;-77
2021/11/30 03:00:58;;;;;;;9.45;4.00;;;;;;;;;;5052121;28;20047;-77
2021/11/30 03:03:27;;;;;;;11.10;4.38;;;;;;;;;;5052150;28;20475;-76
2021/11/30 03:05:54;;;;;;;10.02;4.45;;;;;;;;;;5052326;28;20055;-77
2021/11/30 03:08:21;;;;;;;7.35;3.80;;;;;;;;;;5051545;28;20098;-77
2021/11/30 03:10:49;;;;;;;8.30;4.40;;;;;;;;;;5051704;28;20045;-76
2021/11/30 03:13:16;;;;;;;8.15;3.92;;;;;;;;;;5051887;28;20049;-77
2021/11/30 03:15:42;;;;;;;9.15;4.25;;;;;;;;;;5051522;28;20732;-77
2021/11/30 03:18:10;;;;;;;9.48;3.85;;;;;;;;;;5051563;28;20086;-77
2021/11/30 03:20:37;;;;;;;9.30;4.45;;;;;;;;;;5051848;28;20048;-77
2021/11/30 03:23:03;;;;;;;8.38;4.60;;;;;;;;;;5051985;28;20053;-77
2021/11/30 03:25:30;;;;;;;7.22;3.55;;;;;;;;;;5051899;28;20107;-77
2021/11/30 03:27:58;;;;;;;8.80;4.43;;;;;;;;;;5051457;28;20049;-77
2021/11/30 03:30:25;;;;;;;9.13;4.88;;;;;;;;;;5051358;28;20577;-77
2021/11/30 03:35:36;;;;;;;10.30;4.63;;;;;;;;;;5051534;28;20515;-79
2021/11/30 03:38:03;;;;;;;11.43;4.78;;;;;;;;;;5051452;28;20076;-77
2021/11/30 03:40:31;;;;;;;9.15;4.03;;;;;;;;;;5051342;28;20045;-77
2021/11/30 03:42:59;;;;;;;7.68;3.97;;;;;;;;;;5051568;28;20620;-76
2021/11/30 03:45:26;;;;;;;8.80;5.13;;;;;;;;;;5051575;28;20090;-77
2021/11/30 03:47:53;;;;;;;9.93;4.25;;;;;;;;;;5051528;28;20496;-77
2021/11/30 03:50:19;;;;;;;9.27;4.07;;;;;;;;;;5051531;28;20499;-76
2021/11/30 03:52:46;;;;;;;8.73;3.90;;;;;;;;;;5052463;28;20045;-77
2021/11/30 03:55:13;;;;;;;8.65;4.10;;;;;;;;;;5051461;28;20098;-77
2021/11/30 03:57:40;;;;;;;8.60;4.03;;;;;;;;;;5051449;28;20106;-77
2021/11/30 04:00:10;;;;;;;7.90;4.03;;;;;;;;;;5051072;28;20454;-77
2021/11/30 04:02:38;;;;;;;11.27;4.45;;;;;;;;;;5055043;28;20093;-77
2021/11/30 04:05:06;;;;;;;6.55;3.97;;;;;;;;;;5054956;28;20505;-77
2021/11/30 04:07:33;;;;;;;8.73;4.22;;;;;;;;;;5054725;28;20537;-76
2021/11/30 04:10:00;;;;;;;10.10;3.55;;;;;;;;;;5054516;28;20053;-77
2021/11/30 04:12:27;;;;;;;7.78;3.97;;;;;;;;;;5055045;28;20102;-77
2021/11/30 04:14:54;;;;;;;9.70;4.22;;;;;;;;;;5055083;28;20053;-77
2021/11/30 04:17:22;;;;;;;9.90;3.85;;;;;;;;;;5054789;28;20099;-77
2021/11/30 04:19:49;;;;;;;9.68;3.60;;;;;;;;;;5054329;28;20040;-77
2021/11/30 04:22:16;;;;;;;8.43;4.03;;;;;;;;;;5054500;28;20458;-77
2021/11/30 04:24:42;;;;;;;12.10;4.03;;;;;;;;;;5054852;28;20462;-77
2021/11/30 04:27:09;;;;;;;7.53;4.05;;;;;;;;;;5054730;28;20045;-77
2021/11/30 04:29:37;;;;;;;11.27;5.10;;;;;;;;;;5054379;28;20053;-77
2021/11/30 04:32:05;;;;;;;8.90;4.30;;;;;;;;;;5054335;28;20053;-77
2021/11/30 04:34:34;;;;;;;6.80;3.83;;;;;;;;;;5054563;28;20045;-77
2021/11/30 04:37:00;;;;;;;8.25;3.92;;;;;;;;;;5054189;28;20048;-76
2021/11/30 04:39:27;;;;;;;7.03;3.67;;;;;;;;;;5053972;28;20443;-77
2021/11/30 04:41:54;;;;;;;9.13;3.72;;;;;;;;;;5054354;28;20048;-76
2021/11/30 04:44:24;;;;;;;7.90;3.85;;;;;;;;;;5054254;28;20396;-77
2021/11/30 04:46:54;;;;;;;9.13;4.10;;;;;;;;;;5054430;28;20051;-77
2021/11/30 04:49:37;;;;;;;7.72;3.80;;;;;;;;;;5054010;28;20056;-77
2021/11/30 04:52:08;;;;;;;6.88;3.72;;;;;;;;;;5054159;28;20055;-77
2021/11/30 04:54:35;;;;;;;8.82;3.88;;;;;;;;;;5054333;28;20056;-77
2021/11/30 04:57:02;;;;;;;6.80;3.20;;;;;;;;;;5054130;28;20045;-77
2021/11/30 04:59:28;;;;;;;8.25;3.70;;;;;;;;;;5053764;28;20049;-76
2021/11/30 05:01:55;;;;;;;6.00;3.60;;;;;;;;;;5054029;28;20045;-76
2021/11/30 05:04:22;;;;;;;9.45;3.80;;;;;;;;;;5055249;28;20053;-76
2021/11/30 05:06:49;;;;;;;7.68;4.28;;;;;;;;;;5059499;28;20049;-76
2021/11/30 05:09:17;;;;;;;7.80;3.55;;;;;;;;;;5057920;28;20052;-77
2021/11/30 05:11:44;;;;;;;7.50;3.60;;;;;;;;;;5054091;28;20045;-76
2021/11/30 05:14:11;;;;;;;9.48;4.15;;;;;;;;;;5053308;28;20492;-76
2021/11/30 05:16:39;;;;;;;8.80;3.50;;;;;;;;;;5053667;28;20041;-76
2021/11/30 05:19:06;;;;;;;9.10;3.40;;;;;;;;;;5053398;28;20494;-76
2021/11/30 05:21:33;;;;;;;8.20;3.65;;;;;;;;;;5053564;28;20103;-76
2021/11/30 05:24:03;;;;;;;7.57;3.60;;;;;;;;;;5053960;28;20045;-76
2021/11/30 05:26:32;;;;;;;9.43;3.85;;;;;;;;;;5054124;28;20450;-77
2021/11/30 05:28:58;;;;;;;9.30;3.40;;;;;;;;;;5053200;28;20045;-76
2021/11/30 05:31:26;;;;;;;9.30;3.20;;;;;;;;;;5053866;28;20049;-77
2021/11/30 05:33:52;;;;;;;8.65;3.78;;;;;;;;;;5053639;28;20535;-77
2021/11/30 05:36:20;;;;;;;8.85;4.13;;;;;;;;;;5053368;28;20477;-77
2021/11/30 05:38:47;;;;;;;11.25;4.15;;;;;;;;;;5052872;28;20049;-77
2021/11/30 05:41:14;;;;;;;8.85;3.85;;;;;;;;;;5053702;28;20044;-77
2021/11/30 05:43:42;;;;;;;9.00;3.63;;;;;;;;;;5053155;28;20191;-77
2021/11/30 05:46:08;;;;;;;9.25;4.47;;;;;;;;;;5054006;28;20110;-77
2021/11/30 05:48:36;;;;;;;7.88;3.50;;;;;;;;;;5052935;28;20041;-77
2021/11/30 05:51:04;;;;;;;8.70;3.72;;;;;;;;;;5053491;28;20397;-76
2021/11/30 05:53:31;;;;;;;8.30;3.38;;;;;;;;;;5053358;28;20056;-76
2021/11/30 05:56:00;;;;;;;8.77;3.80;;;;;;;;;;5053699;28;20045;-77
2021/11/30 05:58:28;;;;;;;8.85;4.32;;;;;;;;;;5052612;28;20041;-77
2021/11/30 06:01:04;;;;;;;7.78;3.78;;;;;;;;;;5053245;28;20106;-77
2021/11/30 06:03:33;;;;;;;10.85;4.50;;;;;;;;;;5053066;28;20049;-76
2021/11/30 06:06:00;;;;;;;9.95;3.67;;;;;;;;;;5053057;28;20053;-76
2021/11/30 06:08:27;;;;;;;8.32;3.38;;;;;;;;;;5052466;28;20052;-76
2021/11/30 06:10:53;;;;;;;8.50;4.00;;;;;;;;;;5078079;22;20048;-81
2021/11/30 06:13:20;;;;;;;9.07;3.85;;;;;;;;;;5083977;28;20049;-79
2021/11/30 06:15:47;;;;;;;7.78;3.38;;;;;;;;;;5087045;28;20071;-80
2021/11/30 06:18:15;;;;;;;10.15;4.28;;;;;;;;;;5080606;28;20522;-77
2021/11/30 06:20:42;;;;;;;9.77;4.00;;;;;;;;;;5065039;28;20458;-78
2021/11/30 06:23:08;;;;;;;6.47;4.00;;;;;;;;;;5064025;28;20041;-80
2021/11/30 06:25:35;;;;;;;8.00;3.80;;;;;;;;;;5068601;28;20033;-84
2021/11/30 06:28:02;;;;;;;8.05;4.18;;;;;;;;;;5077460;28;20112;-83
2021/11/30 06:30:29;;;;;;;7.78;3.95;;;;;;;;;;5066067;28;20051;-81
2021/11/30 06:32:56;;;;;;;8.57;3.70;;;;;;;;;;5060732;28;20205;-81
2021/11/30 06:35:24;;;;;;;6.70;3.88;;;;;;;;;;5059289;28;20044;-80
2021/11/30 06:37:52;;;;;;;8.77;3.70;;;;;;;;;;5063318;28;20045;-80
2021/11/30 06:40:18;;;;;;;7.60;4.35;;;;;;;;;;5061999;28;20065;-82
2021/11/30 06:42:45;;;;;;;9.85;4.18;;;;;;;;;;5060767;28;20049;-79
2021/11/30 06:45:12;;;;;;;7.72;3.67;;;;;;;;;;5058994;28;20045;-79
2021/11/30 06:47:42;;;;;;;8.85;3.92;;;;;;;;;;5060359;28;20110;-78
2021/11/30 06:50:10;;;;;;;7.55;3.85;;;;;;;;;;5061426;28;20049;-78
2021/11/30 06:52:39;;;;;;;7.30;3.88;;;;;;;;;;5063211;28;20048;-78
2021/11/30 06:55:07;;;;;;;7.28;3.17;;;;;;;;;;5062705;28;20546;-79
2021/11/30 06:57:34;;;;;;;11.73;4.60;;;;;;;;;;5065643;28;20053;-77
2021/11/30 07:00:04;;;;;;;7.80;4.00;;;;;;;;;;5063055;28;20063;-79
2021/11/30 07:02:31;;;;;;;12.50;4.72;;;;;;;;;;5064394;28;20045;-79
2021/11/30 07:05:02;;;;;;;10.13;4.00;;;;;;;;;;5062656;28;20113;-79
2021/11/30 07:07:33;;;;;;;10.10;4.22;;;;;;;;;;5063864;28;20045;-78
2021/11/30 07:10:22;;;;;;;7.93;3.60;;;;;;;;;;5063267;28;20115;-79
2021/11/30 07:13:14;;;;;;;8.85;3.40;;;;;;;;;;5065104;28;20057;-82
2021/11/30 07:15:42;;;;;;;7.78;3.55;;;;;;;;;;5063070;28;20512;-79
2021/11/30 07:18:10;;;;;;;7.45;4.05;;;;;;;;;;5062033;28;20049;-80
2021/11/30 07:20:37;;;;;;;6.70;3.30;;;;;;;;;;5061404;28;20045;-79
2021/11/30 07:23:04;;;;;;;8.50;3.83;;;;;;;;;;5061871;28;20423;-79
2021/11/30 07:25:32;;;;;;;7.93;3.80;;;;;;;;;;5061273;28;20049;-80
2021/11/30 07:27:59;;;;;;;8.10;3.78;;;;;;;;;;5061746;28;20090;-79
2021/11/30 07:30:26;;;;;;;6.45;3.47;;;;;;;;;;5062452;28;20110;-79
2021/11/30 07:32:53;;;;;;;7.50;3.33;;;;;;;;;;5062879;28;20053;-80
2021/11/30 07:35:20;;;;;;;7.75;3.63;;;;;;;;;;5062328;28;20057;-79
2021/11/30 07:37:47;;;;;;;9.93;3.35;;;;;;;;;;5067191;28;20075;-78
2021/11/30 07:40:15;;;;;;;7.53;3.47;;;;;;;;;;5070534;28;20080;-79
2021/11/30 07:42:44;;;;;;;5.50;2.83;;;;;;;;;;5077140;28;20052;-80
2021/11/30 07:45:12;;;;;;;6.18;3.22;;;;;;;;;;5072469;28;20072;-79
2021/11/30 07:47:39;;;;;;;8.40;3.65;;;;;;;;;;5065085;28;20049;-79
2021/11/30 07:50:08;;;;;;;7.03;3.10;;;;;;;;;;5063490;28;20053;-79
2021/11/30 07:52:39;;;;;;;7.05;3.25;;;;;;;;;;5060008;28;20069;-79
2021/11/30 07:55:07;;;;;;;9.32;3.30;;;;;;;;;;5059924;28;20389;-79
2021/11/30 07:57:34;;;;;;;7.80;3.42;;;;;;;;;;5058720;28;20052;-80
2021/11/30 08:00:02;;;;;;;6.93;3.40;;;;;;;;;;5059956;28;20053;-78
2021/11/30 08:02:29;;;;;;;8.65;3.58;;;;;;;;;;5061962;28;20048;-80
2021/11/30 08:04:55;;;;;;;9.65;3.78;;;;;;;;;;5061468;28;20495;-80
2021/11/30 08:07:23;;;;;;;6.88;3.25;;;;;;;;;;5049696;28;20049;-80
2021/11/30 08:09:50;;;;;;;6.93;3.42;;;;;;;;;;5048391;28;20045;-80
2021/11/30 08:12:17;;;;;;;11.27;3.70;;;;;;;;;;5051705;28;20045;-79
2021/11/30 08:14:44;;;;;;;6.22;2.92;;;;;;;;;;5052321;28;20044;-81
2021/11/30 08:17:14;;;;;;;10.65;3.45;;;;;;;;;;5045031;28;20077;-80
2021/11/30 08:19:41;;;;;;;8.65;2.85;;;;;;;;;;5041539;28;20057;-80
2021/11/30 08:22:08;;;;;;;8.60;3.85;;;;;;;;;;5041975;28;20070;-79
2021/11/30 08:24:36;;;;;;;5.40;2.53;;;;;;;;;;5042356;28;20049;-80
2021/11/30 08:27:03;;;;;;;6.72;3.15;;;;;;;;;;5041914;28;20052;-78
2021/11/30 08:29:31;;;;;;;6.88;2.83;;;;;;;;;;5042004;28;20049;-79
2021/11/30 08:31:57;;;;;;;8.63;3.17;;;;;;;;;;5042025;28;20048;-79
2021/11/30 08:34:27;;;;;;;6.63;2.88;;;;;;;;;;5043150;28;20049;-78
2021/11/30 08:36:54;;;;;;;7.45;3.75;;;;;;;;;;5043656;28;20042;-80
2021/11/30 08:39:21;;;;;;;5.78;2.80;;;;;;;;;;5043805;28;20041;-79
2021/11/30 08:41:48;;;;;;;9.10;3.60;;;;;;;;;;5044230;28;20103;-80
2021/11/30 08:44:15;;;;;;;7.85;3.60;;;;;;;;;;5042303;28;20041;-80
2021/11/30 08:46:42;;;;;;;7.25;2.97;;;;;;;;;;5042184;28;20144;-79
2021/11/30 08:49:09;;;;;;;7.72;3.30;;;;;;;;;;5042139;28;20077;-80
2021/11/30 08:51:37;;;;;;;6.78;2.88;;;;;;;;;;5042840;28;20049;-80
2021/11/30 08:54:04;;;;;;;7.78;3.58;;;;;;;;;;5042882;28;20104;-80
2021/11/30 08:56:31;;;;;;;9.00;3.60;;;;;;;;;;5044141;28;20075;-79
2021/11/30 08:58:57;;;;;;;10.95;4.28;;;;;;;;;;5042096;28;20056;-78
2021/11/30 09:01:24;;;;;;;7.85;3.50;;;;;;;;;;5046443;28;20365;-78
2021/11/30 09:03:53;;;;;;;9.00;3.53;;;;;;;;;;5058359;28;20049;-83
2021/11/30 09:06:20;;;;;;;6.75;3.50;;;;;;;;;;5055660;28;20065;-80
2021/11/30 09:08:48;;;;;;;7.80;3.53;;;;;;;;;;5042700;28;20064;-80
2021/11/30 09:11:17;;;;;;;9.38;4.00;;;;;;;;;;5042527;28;20095;-78
2021/11/30 09:13:44;;;;;;;8.82;4.15;;;;;;;;;;5040165;28;20053;-81
2021/11/30 09:16:10;;;;;;;6.85;3.40;;;;;;;;;;5039964;28;20048;-79
2021/11/30 09:18:37;;;;;;;8.98;4.13;;;;;;;;;;5041701;28;20041;-77
2021/11/30 09:21:04;;;;;;;11.32;3.97;;;;;;;;;;5040806;28;20037;-78
2021/11/30 09:23:31;;;;;;;8.15;3.47;;;;;;;;;;5043681;28;20052;-78
2021/11/30 09:26:00;;;;;;;8.50;3.55;;;;;;;;;;5043478;28;20643;-78
2021/11/30 09:28:27;;;;;;;8.18;3.50;;;;;;;;;;5042106;28;20037;-79
2021/11/30 09:30:54;;;;;;;10.73;3.58;;;;;;;;;;5041298;28;20061;-78
2021/11/30 09:33:21;;;;;;;12.60;3.80;;;;;;;;;;5045533;28;20047;-79
2021/11/30 09:35:48;;;;;;;8.43;2.53;;;;;;;;;;5044577;28;20100;-78
2021/11/30 09:38:15;;;;;;;7.82;2.92;;;;;;;;;;5047885;28;20120;-79
2021/11/30 09:40:42;;;;;;;5.65;2.53;;;;;;;;;;5041958;28;20114;-77
2021/11/30 09:43:10;;;;;;;7.35;2.25;;;;;;;;;;5043802;28;20139;-78
2021/11/30 09:45:39;;;;;;;4.70;2.15;;;;;;;;;;5046666;28;20064;-78
2021/11/30 09:48:10;;;;;;;5.32;2.15;;;;;;;;;;5045356;28;20041;-79
2021/11/30 09:50:38;;;;;;;4.57;2.13;;;;;;;;;;5047290;28;20056;-79
2021/11/30 09:53:06;;;;;;;4.85;2.05;;;;;;;;;;5047096;28;20597;-79
2021/11/30 09:55:34;;;;;;;4.70;1.80;;;;;;;;;;5046915;28;20103;-79
2021/11/30 09:58:01;;;;;;;7.10;2.22;;;;;;;;;;5046933;28;20045;-79
2021/11/30 10:00:29;;;;;;;5.30;1.65;;;;;;;;;;5045101;28;20050;-80
2021/11/30 10:02:56;;;;;;;4.70;2.00;;;;;;;;;;5042346;28;20053;-78
2021/11/30 10:05:23;;;;;;;3.28;1.35;;;;;;;;;;5041134;28;20078;-79
2021/11/30 10:07:53;;;;;;;6.10;2.03;;;;;;;;;;5041723;28;20041;-79
2021/11/30 10:10:22;;;;;;;5.72;1.95;;;;;;;;;;5040009;28;20041;-78
2021/11/30 10:12:55;;;;;;;4.57;1.88;;;;;;;;;;5043336;28;20049;-84
2021/11/30 10:15:22;;;;;;;7.93;1.52;;;;;;;;;;5045169;28;20059;-80
2021/11/30 10:17:51;;;;;;;5.15;1.77;;;;;;;;;;5044747;28;20044;-81
2021/11/30 10:20:18;;;;;;;6.10;2.13;;;;;;;;;;5040761;28;20071;-81
2021/11/30 10:22:51;;;;;;;4.60;1.90;;;;;;;;;;5039201;28;20575;-77
2021/11/30 10:25:23;;;;;;;4.88;1.88;;;;;;;;;;5040408;28;20057;-80
2021/11/30 10:27:53;;;;;;;4.80;2.00;;;;;;;;;;5048016;28;20414;-80
2021/11/30 10:30:22;;;;;;;4.57;1.87;;;;;;;;;;5045648;28;20061;-79
2021/11/30 10:32:51;;;;;;;4.10;1.98;;;;;;;;;;5046000;28;20332;-78
2021/11/30 10:35:19;;;;;;;3.78;1.42;;;;;;;;;;5045659;28;20083;-78
2021/11/30 10:37:47;;;;;;;4.50;2.00;;;;;;;;;;5054052;28;20057;-78
2021/11/30 10:40:17;;;;;;;3.42;1.50;;;;;;;;;;5046730;28;20053;-78
2021/11/30 10:42:50;;;;;;;5.10;1.70;;;;;;;;;;5044423;28;20049;-78
2021/11/30 10:45:28;;;;;;;4.65;1.50;;;;;;;;;;5043726;28;20067;-79
2021/11/30 10:48:02;;;;;;;5.55;1.58;;;;;;;;;;5043969;28;20132;-78
2021/11/30 10:50:33;;;;;;;4.18;1.65;;;;;;;;;;5044514;28;20076;-78
2021/11/30 10:53:01;;;;;;;3.63;1.27;;;;;;;;;;5044624;28;20045;-78
2021/11/30 10:55:28;;;;;;;4.38;1.40;;;;;;;;;;5044688;28;20072;-79
2021/11/30 10:57:55;;;;;;;4.50;2.25;;;;;;;;;;5044731;28;20075;-79
2021/11/30 11:00:27;;;;;;;4.57;1.50;;;;;;;;;;5038328;28;20115;-77
2021/11/30 11:03:00;;;;;;;3.55;1.45;;;;;;;;;;5037868;28;20407;-79
2021/11/30 11:05:30;;;;;;;3.45;1.40;;;;;;;;;;5038431;28;20527;-77
2021/11/30 11:08:10;;;;;;;4.93;1.40;;;;;;;;;;5038546;28;20037;-79
2021/11/30 11:10:38;;;;;;;2.28;1.15;;;;;;;;;;5040507;28;20653;-78
2021/11/30 11:13:24;;;;;;;3.35;1.45;;;;;;;;;;5045337;28;20503;-78
2021/11/30 11:15:52;;;;;;;3.03;1.63;;;;;;;;;;5046900;28;20041;-78
2021/11/30 11:18:24;;;;;;;4.35;2.40;;;;;;;;;;5044724;28;20091;-77
2021/11/30 11:21:09;;;;;;;2.95;1.40;;;;;;;;;;5045198;28;20049;-78
2021/11/30 11:23:38;;;;;;;3.90;1.75;;;;;;;;;;5046726;28;20069;-78
2021/11/30 11:26:19;;;;;;;3.53;1.30;;;;;;;;;;5046872;28;20119;-78
2021/11/30 11:28:47;;;;;;;3.53;1.50;;;;;;;;;;5045023;28;20095;-79
2021/11/30 11:31:14;;;;;;;2.08;1.27;;;;;;;;;;5049570;28;20049;-79
2021/11/30 11:33:40;;;;;;;3.25;1.30;;;;;;;;;;5047107;28;20100;-79
2021/11/30 11:36:09;;;;;;;4.63;1.70;;;;;;;;;;5049416;28;20067;-78
2021/11/30 11:38:36;;;;;;;3.83;1.58;;;;;;;;;;5052599;28;20049;-79
2021/11/30 11:41:03;;;;;;;3.72;1.65;;;;;;;;;;5060384;28;20037;-77
2021/11/30 11:43:30;;;;;;;4.60;1.38;;;;;;;;;;5061599;28;20045;-81
2021/11/30 11:45:57;;;;;;;3.38;1.42;;;;;;;;;;5047783;28;20057;-78
2021/11/30 11:48:27;;;;;;;3.50;1.67;;;;;;;;;;5046540;28;20454;-81
2021/11/30 11:50:57;;;;;;;2.83;1.20;;;;;;;;;;5047901;28;20058;-78
2021/11/30 11:53:28;;;;;;;4.68;1.70;;;;;;;;;;5044276;28;20056;-78
2021/11/30 11:56:18;;;;;;;3.70;1.60;;;;;;;;;;5043935;28;20049;-78
2021/11/30 11:58:47;;;;;;;3.65;1.40;;;;;;;;;;5044242;28;20071;-79
2021/11/30 12:01:20;;;;;;;2.72;1.30;;;;;;;;;;5043653;28;20052;-77
2021/11/30 12:03:58;;;;;;;3.72;1.60;;;;;;;;;;5044706;28;20080;-77
2021/11/30 12:06:28;;;;;;;3.22;1.13;;;;;;;;;;5044403;28;20049;-80
2021/11/30 12:09:24;;;;;;;3.03;1.40;;;;;;;;;;5043867;28;20471;-77
2021/11/30 12:11:53;;;;;;;4.70;1.42;;;;;;;;;;5044426;28;20049;-78
2021/11/30 12:14:30;;;;;;;3.00;1.35;;;;;;;;;;5045193;28;20045;-81
2021/11/30 12:17:10;;;;;;;4.55;1.50;;;;;;;;;;5045140;28;20052;-80
2021/11/30 12:19:40;;;;;;;3.17;1.33;;;;;;;;;;5055723;22;20032;-68
2021/11/30 12:22:08;;;;;;;3.03;1.27;;;;;;;;;;5033524;28;20049;-66
2021/11/30 12:24:39;;;;;;;4.32;1.80;;;;;;;;;;5033257;28;20556;-68
2021/11/30 12:27:43;;;;;;;3.35;1.40;;;;;;;;;;5033118;28;20050;-68
2021/11/30 12:30:39;;;;;;;3.42;1.23;;;;;;;;;;5033345;28;20045;-68
2021/11/30 12:33:08;;;;;;;4.38;1.50;;;;;;;;;;5033099;28;20057;-68
2021/11/30 12:35:48;;;;;;;3.25;1.23;;;;;;;;;;5033322;28;20406;-69
2021/11/30 12:38:21;;;;;;;3.50;1.48;;;;;;;;;;5033359;28;20502;-68
2021/11/30 12:40:50;;;;;;;3.58;1.48;;;;;;;;;;5032667;28;20052;-68
2021/11/30 12:43:22;;;;;;;5.45;2.10;;;;;;;;;;5032331;28;20049;-69
2021/11/30 12:45:53;;;;;;;5.13;2.17;;;;;;;;;;5032438;28;20057;-69
2021/11/30 12:48:22;;;;;;;;;;;;;;;;;;5033346;28;20108;-68
2021/11/30 12:50:57;;;;;;;4.90;1.58;;;;;;;;;;5033154;28;20395;-69
2021/11/30 12:53:40;;;;;;;5.20;1.65;;;;;;;;;;5032742;28;20563;-69
2021/11/30 12:56:11;;;;;;;3.25;1.25;;;;;;;;;;5032264;28;20053;-69
2021/11/30 12:58:43;;;;;;;4.30;1.50;;;;;;;;;;5032652;28;20099;-68
2021/11/30 13:01:19;;;;;;;6.20;2.00;;;;;;;;;;5032368;28;20056;-69
2021/11/30 13:03:47;;;;;;;4.35;1.17;;;;;;;;;;5032665;28;20057;-69
2021/11/30 13:06:14;;;;;;;3.42;1.42;;;;;;;;;;5032176;28;20495;-69
2021/11/30 13:09:08;;;;;;;4.72;1.55;;;;;;;;;;5032272;28;20514;-68
2021/11/30 13:11:37;;;;;;;5.25;1.60;;;;;;;;;;5000429;28;20057;-67
2021/11/30 13:14:06;;;;;;;3.08;1.48;;;;;;;;;;5032299;28;20071;-69
2021/11/30 13:16:45;;;;;;;7.63;1.85;;;;;;;;;;5032501;28;20116;-68
2021/11/30 13:19:13;;;;;;;7.43;1.52;;;;;;;;;;5032682;28;20053;-69
2021/11/30 13:21:42;;;;;;;5.07;1.50;;;;;;;;;;5032251;28;20487;-69
2021/11/30 13:24:13;;;;;;;3.50;1.63;;;;;;;;;;5031866;28;20510;-69
2021/11/30 13:26:43;;;;;;;2.88;1.40;;;;;;;;;;5032149;28;20533;-69
2021/11/30 13:29:23;;;;;;;2.40;1.40;;;;;;;;;;5032753;28;20496;-69
2021/11/30 13:32:01;;;;;;;3.17;1.60;;;;;;;;;;5031889;28;20287;-69
2021/11/30 13:34:28;;;;;;;3.45;1.27;;;;;;;;;;5031763;28;20052;-69
2021/11/30 13:36:55;;;;;;;3.75;1.95;;;;;;;;;;5032129;28;20392;-70
2021/11/30 13:39:23;;;;;;;4.40;1.40;;;;;;;;;;5032450;28;20045;-70
2021/11/30 13:41:52;;;;;;;4.05;1.73;;;;;;;;;;5032276;28;20581;-70
2021/11/30 13:44:20;;;;;;;3.25;1.50;;;;;;;;;;5032215;28;20402;-70
2021/11/30 13:46:47;;;;;;;5.15;1.77;;;;;;;;;;5031806;28;20061;-67
2021/11/30 13:49:14;;;;;;;3.22;1.58;;;;;;;;;;5031905;28;20112;-68
2021/11/30 13:51:44;;;;;;;3.75;1.38;;;;;;;;;;5032033;28;20046;-69
2021/11/30 13:54:17;;;;;;;3.05;1.30;;;;;;;;;;5032036;28;20100;-68
2021/11/30 13:56:50;;;;;;;3.75;1.35;;;;;;;;;;5031683;28;20076;-70
2021/11/30 13:59:20;;;;;;;5.28;1.83;;;;;;;;;;5030405;28;20053;-69
2021/11/30 14:01:48;;;;;;;3.72;1.45;;;;;;;;;;5030696;28;20053;-70
2021/11/30 14:04:18;;;;;;;6.57;1.35;;;;;;;;;;5031197;28;20045;-70
2021/11/30 14:06:48;;;;;;;2.90;1.20;;;;;;;;;;5029182;28;20053;-71
2021/11/30 14:09:17;;;;;;;3.83;1.20;;;;;;;;;;5030300;28;20064;-69
2021/11/30 14:11:48;;;;;;;4.10;1.63;;;;;;;;;;5031172;28;20053;-70
2021/11/30 14:14:18;;;;;;;3.20;1.30;;;;;;;;;;5031858;28;20053;-68
2021/11/30 14:16:53;;;;;;;3.40;1.60;;;;;;;;;;5031475;28;20399;-70
2021/11/30 14:19:21;;;;;;;2.78;1.40;;;;;;;;;;5032013;28;20057;-69
2021/11/30 14:22:00;;;;;;;4.30;1.42;;;;;;;;;;5019417;28;20053;-70
2021/11/30 14:24:28;;;;;;;3.50;1.40;;;;;;;;;;5026130;28;20053;-70
2021/11/30 14:27:10;;;;;;;7.90;1.80;;;;;;;;;;5030890;28;20045;-70
2021/11/30 14:29:38;;;;;;;3.85;1.40;;;;;;;;;;5031352;28;20087;-69
2021/11/30 14:32:14;;;;;;;5.15;1.83;;;;;;;;;;5014015;28;20103;-69
2021/11/30 14:34:44;;;;;;;4.57;1.73;;;;;;;;;;5031746;28;20071;-70
2021/11/30 14:37:27;;;;;;;5.13;2.25;;;;;;;;;;5031382;28;20438;-70
2021/11/30 14:40:17;;;;;;;2.97;1.13;;;;;;;;;;5030886;28;20415;-69
2021/11/30 14:42:46;;;;;;;5.55;1.70;;;;;;;;;;5026225;28;20491;-68
2021/11/30 14:45:28;;;;;;;3.70;1.35;;;;;;;;;;5030335;28;20061;-70
2021/11/30 14:48:12;;;;;;;4.72;1.42;;;;;;;;;;5031257;28;20409;-71
2021/11/30 14:50:44;;;;;;;5.18;1.45;;;;;;;;;;5015981;28;20051;-70
2021/11/30 14:53:15;;;;;;;5.30;1.48;;;;;;;;;;5012799;28;20045;-69
2021/11/30 14:55:49;;;;;;;5.35;1.50;;;;;;;;;;5031268;28;20482;-69
2021/11/30 14:58:20;;;;;;;6.30;2.20;;;;;;;;;;5030965;28;20054;-69